Time;durP1;ratioP1;P1;durP2;ratioP2;P2;SDS_P1;SDS_P2;PMS_P1;PMS_P2;Temp;Humidity;BMP_temperature;BMP_pressure;BME280_temperature;BME280_humidity;BME280_pressure;Samples;Min_cycle;Max_cycle;Signal;HPM_P1;HPM_P2
2023/02/15 00:01:34;;;;;;;54.50;27.47;;;;;;;3.47;87.28;96053.06;5033103;28;20449;-80
2023/02/15 00:04:00;;;;;;;49.17;29.17;;;;;;;3.41;87.21;96059.31;5032996;28;20489;-80
2023/02/15 00:06:27;;;;;;;58.20;29.07;;;;;;;3.41;87.70;96063.66;5032832;28;20442;-80
2023/02/15 00:08:54;;;;;;;49.20;27.87;;;;;;;3.51;87.66;96065.00;4998108;28;20438;-81
2023/02/15 00:14:05;;;;;;;49.20;26.83;;;;;;;3.45;87.67;96067.81;5031679;28;20488;-82
2023/02/15 00:16:32;;;;;;;45.67;26.20;;;;;;;3.44;87.92;96068.72;5032662;28;20446;-80
2023/02/15 00:19:01;;;;;;;46.27;26.67;;;;;;;3.40;87.91;96073.19;5032677;28;20465;-81
2023/02/15 00:21:29;;;;;;;44.60;26.93;;;;;;;3.36;88.03;96084.59;5032379;28;20504;-79
2023/02/15 00:23:56;;;;;;;58.57;29.17;;;;;;;3.41;88.20;96084.41;5032552;28;20593;-80
2023/02/15 00:26:32;;;;;;;54.80;29.53;;;;;;;3.38;87.79;96074.16;5110048;27;20507;-79
2023/02/15 00:28:59;;;;;;;48.57;27.93;;;;;;;3.36;87.44;96074.22;5109709;28;20450;-80
2023/02/15 00:31:27;;;;;;;52.97;27.50;;;;;;;3.31;88.70;96073.53;5109572;28;20443;-79
2023/02/15 00:33:54;;;;;;;44.53;27.10;;;;;;;3.33;88.13;96073.47;5109794;28;20511;-80
2023/02/15 00:36:20;;;;;;;41.97;24.90;;;;;;;3.30;89.06;96077.03;5090179;28;20443;-79
2023/02/15 00:38:47;;;;;;;47.50;29.10;;;;;;;3.41;88.99;96080.06;5109637;28;20438;-79
2023/02/15 00:41:14;;;;;;;44.80;25.90;;;;;;;3.40;88.48;96077.53;5090254;28;20933;-79
2023/02/15 00:43:42;;;;;;;47.77;26.33;;;;;;;3.37;88.30;96077.66;5109467;28;20446;-79
2023/02/15 00:46:09;;;;;;;47.00;26.33;;;;;;;3.35;88.32;96088.09;5109032;28;20482;-80
2023/02/15 00:48:36;;;;;;;42.20;25.53;;;;;;;3.34;87.75;96085.53;5109147;28;20496;-78
2023/02/15 00:51:03;;;;;;;50.30;27.83;;;;;;;3.34;88.57;96077.75;5109485;28;20446;-80
2023/02/15 00:53:30;;;;;;;44.13;25.93;;;;;;;3.28;88.63;96078.00;5090015;28;20441;-79
2023/02/15 00:55:57;;;;;;;48.30;27.57;;;;;;;3.18;88.76;96071.44;5109468;28;20454;-80
2023/02/15 00:58:24;;;;;;;51.07;27.97;;;;;;;3.24;89.22;96072.09;5109213;28;20443;-82
2023/02/15 01:00:53;;;;;;;41.27;24.97;;;;;;;3.15;89.23;96069.81;5110133;28;20500;-81
2023/02/15 01:03:21;;;;;;;54.97;28.20;;;;;;;3.13;90.16;96074.22;5109074;28;20442;-81
2023/02/15 01:05:49;;;;;;;48.97;25.50;;;;;;;3.20;88.96;96065.31;5108927;28;20910;-80
2023/02/15 01:08:16;;;;;;;46.13;26.63;;;;;;;3.15;89.75;96061.19;5073162;28;20435;-80
2023/02/15 01:10:52;;;;;;;45.60;25.80;;;;;;;3.17;89.88;96069.75;5109072;28;20507;-79
2023/02/15 01:13:18;;;;;;;48.27;26.33;;;;;;;3.07;89.63;96069.25;5109176;28;20443;-80
2023/02/15 01:15:45;;;;;;;40.57;23.90;;;;;;;3.03;90.40;96063.34;5109020;28;20435;-79
2023/02/15 01:18:13;;;;;;;43.27;24.80;;;;;;;2.90;90.81;96056.91;5089750;28;20438;-79
2023/02/15 01:20:40;;;;;;;49.20;26.50;;;;;;;2.95;90.23;96052.41;5108677;28;20917;-79
2023/02/15 01:23:08;;;;;;;44.57;25.77;;;;;;;2.90;91.15;96061.25;5108915;28;20439;-79
2023/02/15 01:25:36;;;;;;;42.70;26.87;;;;;;;2.88;90.75;96056.09;5108119;28;20490;-79
2023/02/15 01:28:03;;;;;;;43.20;26.13;;;;;;;2.90;91.29;96049.16;5108584;28;20994;-80
2023/02/15 01:30:30;;;;;;;47.00;27.00;;;;;;;2.86;91.29;96050.13;5108279;28;20447;-79
2023/02/15 01:32:58;;;;;;;49.37;26.87;;;;;;;2.85;90.55;96043.25;5108694;28;20496;-79
2023/02/15 01:35:26;;;;;;;46.40;25.50;;;;;;;2.83;92.23;96047.66;5108709;28;20529;-79
2023/02/15 01:37:53;;;;;;;45.47;26.13;;;;;;;2.93;92.20;96045.59;5059146;28;20444;-80
2023/02/15 01:40:20;;;;;;;40.77;24.77;;;;;;;2.89;91.33;96042.28;5094745;28;20493;-79
2023/02/15 01:42:47;;;;;;;50.13;27.20;;;;;;;2.86;91.45;96044.94;5058785;28;20428;-79
2023/02/15 01:45:23;;;;;;;47.87;25.63;;;;;;;2.91;91.84;96040.47;5094356;28;20487;-79
2023/02/15 01:47:54;;;;;;;50.20;25.80;;;;;;;2.87;92.22;96041.44;5094839;28;20451;-79
2023/02/15 01:50:30;;;;;;;47.33;26.70;;;;;;;2.88;92.42;96039.72;5094349;28;20444;-79
2023/02/15 01:53:04;;;;;;;46.87;26.53;;;;;;;2.89;91.78;96034.50;5094707;28;20499;-79
2023/02/15 01:55:44;;;;;;;44.27;25.60;;;;;;;2.87;92.50;96035.44;5094318;28;20443;-79
2023/02/15 01:58:12;;;;;;;51.40;26.77;;;;;;;2.84;92.68;96041.56;5095159;28;20443;-80
2023/02/15 02:00:48;;;;;;;;;;;;;;;;;;;;;
2023/02/15 02:03:16;;;;;;;38.83;23.80;;;;;;;2.87;91.94;96033.69;5042009;28;20436;-79
2023/02/15 02:05:44;;;;;;;46.53;26.37;;;;;;;2.87;92.00;96035.44;5094109;28;20891;-79
2023/02/15 02:08:11;;;;;;;45.20;27.30;;;;;;;2.86;92.33;96034.56;5058427;28;20457;-79
2023/02/15 02:10:37;;;;;;;50.00;26.00;;;;;;;2.85;91.94;96045.84;5094361;28;20500;-79
2023/02/15 02:13:06;;;;;;;49.10;26.27;;;;;;;2.89;91.74;96044.88;5093990;28;20856;-79
2023/02/15 02:15:48;;;;;;;44.70;25.30;;;;;;;2.87;91.86;96040.59;5094052;28;20447;-79
2023/02/15 02:18:37;;;;;;;43.30;25.07;;;;;;;2.89;91.74;96044.00;5094097;28;20447;-79
2023/02/15 02:21:25;;;;;;;42.27;26.40;;;;;;;2.97;91.85;96042.84;5094105;28;20527;-79
2023/02/15 02:24:24;;;;;;;45.67;25.70;;;;;;;3.04;92.33;96053.81;5093921;28;20443;-79
2023/02/15 02:27:15;;;;;;;36.90;22.87;;;;;;;2.93;91.71;96055.97;5093946;28;20475;-80
2023/02/15 02:30:22;;;;;;;41.07;24.83;;;;;;;2.91;92.83;96055.19;5051098;28;20594;-79
2023/02/15 02:33:21;;;;;;;44.70;25.80;;;;;;;2.85;92.98;96053.63;5051059;28;20449;-80
2023/02/15 02:35:57;;;;;;;42.70;26.23;;;;;;;2.80;93.31;96064.16;5050980;28;20449;-79
2023/02/15 02:38:29;;;;;;;48.83;24.97;;;;;;;2.80;93.34;96056.38;5051638;28;20456;-79
2023/02/15 02:41:07;;;;;;;48.13;26.63;;;;;;;2.78;93.05;96058.19;5051224;28;20847;-79
2023/02/15 02:43:39;;;;;;;42.80;24.70;;;;;;;2.82;92.85;96047.72;5051106;28;20210;-79
2023/02/15 02:46:11;;;;;;;45.03;26.00;;;;;;;2.84;93.45;96051.94;5050815;28;20576;-79
2023/02/15 02:48:39;;;;;;;46.27;25.37;;;;;;;2.87;93.30;96046.63;5049902;28;20811;-79
2023/02/15 02:51:06;;;;;;;46.93;25.47;;;;;;;2.93;92.98;96050.78;5034244;28;20480;-80
2023/02/15 02:53:34;;;;;;;49.53;25.70;;;;;;;2.88;92.94;96043.13;5050529;28;20454;-79
2023/02/15 02:56:07;;;;;;;59.10;26.20;;;;;;;2.95;93.22;96055.00;5050816;28;20476;-79
2023/02/15 02:58:40;;;;;;;38.00;23.67;;;;;;;2.93;93.05;96053.38;5001348;28;20832;-79
2023/02/15 03:01:14;;;;;;;47.00;23.57;;;;;;;2.89;93.04;96057.81;5050640;28;20491;-79
2023/02/15 03:03:45;;;;;;;38.07;24.10;;;;;;;2.81;93.21;96057.22;5050455;28;20521;-79
2023/02/15 03:06:18;;;;;;;46.43;23.37;;;;;;;2.85;93.14;96063.16;5060144;28;20479;-79
2023/02/15 03:08:54;;;;;;;34.60;22.60;;;;;;;2.84;93.27;96066.63;5093338;28;20530;-79
2023/02/15 03:11:21;;;;;;;36.83;22.90;;;;;;;2.82;94.16;96071.03;5093632;28;20439;-79
2023/02/15 03:13:50;;;;;;;32.23;20.50;;;;;;;2.79;94.18;96069.41;5093467;28;20489;-80
2023/02/15 03:16:27;;;;;;;51.73;23.57;;;;;;;2.87;94.70;96076.91;5093117;28;20985;-79
2023/02/15 03:18:58;;;;;;;40.83;23.20;;;;;;;2.90;94.71;96084.59;5092861;28;20451;-80
2023/02/15 03:21:31;;;;;;;43.17;24.43;;;;;;;2.90;93.16;96077.66;5092925;28;20530;-79
2023/02/15 03:24:08;;;;;;;43.63;24.10;;;;;;;2.90;93.26;96072.47;5092724;28;20789;-79
2023/02/15 03:26:37;;;;;;;39.73;23.83;;;;;;;2.93;93.26;96069.78;5092714;28;20482;-80
2023/02/15 03:29:07;;;;;;;40.83;22.00;;;;;;;2.93;93.02;96071.50;5092758;28;20443;-80
2023/02/15 03:31:40;;;;;;;42.97;23.83;;;;;;;2.88;93.79;96063.88;5092749;28;20500;-80
2023/02/15 03:34:12;;;;;;;39.47;23.30;;;;;;;2.91;93.86;96060.34;5092904;28;20592;-79
2023/02/15 03:36:45;;;;;;;43.40;24.43;;;;;;;2.90;93.57;96067.28;5092648;28;20861;-79
2023/02/15 03:39:19;;;;;;;37.70;22.67;;;;;;;2.99;93.88;96071.28;5092542;28;20868;-79
2023/02/15 03:41:55;;;;;;;37.40;22.90;;;;;;;3.01;93.67;96064.31;5092696;28;20439;-79
2023/02/15 03:44:28;;;;;;;33.80;20.97;;;;;;;3.02;93.56;96066.84;5092766;28;20447;-79
2023/02/15 03:47:03;;;;;;;43.90;23.00;;;;;;;3.03;93.01;96065.94;5092404;28;20490;-79
2023/02/15 03:49:39;;;;;;;42.40;23.83;;;;;;;3.05;93.49;96071.06;5073178;28;20933;-79
2023/02/15 03:52:08;;;;;;;41.37;20.97;;;;;;;3.04;94.01;96069.38;5092241;28;20448;-79
2023/02/15 03:54:48;;;;;;;39.00;21.87;;;;;;;3.04;94.58;96071.97;5073597;28;20945;-79
2023/02/15 04:03:08;;;;;;;40.13;22.87;;;;;;;2.99;93.30;96077.31;5061853;28;20814;-79
2023/02/15 04:05:36;;;;;;;39.60;23.17;;;;;;;3.04;93.39;96080.59;5092719;28;20502;-79
2023/02/15 04:08:04;;;;;;;41.80;22.20;;;;;;;3.04;93.04;96072.81;5092146;28;20926;-79
2023/02/15 04:13:15;;;;;;;47.90;25.33;;;;;;;3.08;92.99;96084.75;5092363;28;20498;-85
2023/02/15 04:26:39;;;;;;;43.40;22.90;;;;;;;3.29;93.02;96095.25;5092840;28;20485;-83
2023/02/15 04:29:06;;;;;;;39.37;23.27;;;;;;;3.28;92.87;96098.75;5092826;28;20440;-83
2023/02/15 04:31:32;;;;;;;36.50;21.90;;;;;;;3.22;92.95;96105.00;5092966;28;20447;-79
2023/02/15 04:33:59;;;;;;;44.83;24.87;;;;;;;3.27;92.72;96103.09;5092879;28;20807;-80
2023/02/15 04:36:27;;;;;;;39.77;22.10;;;;;;;3.30;92.90;96105.56;5092617;28;20447;-80
2023/02/15 04:38:54;;;;;;;42.40;23.90;;;;;;;3.32;92.54;96110.69;5092713;28;20448;-79
2023/02/15 04:41:21;;;;;;;38.17;23.00;;;;;;;3.29;92.67;96114.25;5056987;28;20444;-79
2023/02/15 04:43:47;;;;;;;39.83;23.57;;;;;;;3.31;92.57;96121.97;5073551;28;20497;-80
2023/02/15 04:46:14;;;;;;;45.30;24.80;;;;;;;3.33;92.44;96115.84;5092477;28;20961;-79
2023/02/15 04:48:41;;;;;;;31.23;20.50;;;;;;;3.30;92.83;96122.88;5092196;28;20439;-79
2023/02/15 04:51:09;;;;;;;41.70;23.70;;;;;;;3.27;93.12;96117.81;5092276;28;20443;-79
2023/02/15 04:53:37;;;;;;;36.07;21.93;;;;;;;3.21;93.81;96112.84;5092572;28;20481;-81
2023/02/15 04:56:04;;;;;;;41.03;24.50;;;;;;;3.27;93.75;96115.22;5092552;28;20451;-80
2023/02/15 04:58:31;;;;;;;45.20;22.67;;;;;;;3.27;93.67;96118.66;5092332;28;20852;-79
2023/02/15 05:00:58;;;;;;;45.27;22.97;;;;;;;3.24;93.98;96134.34;5092260;28;20596;-79
2023/02/15 05:03:25;;;;;;;42.28;26.60;;;;;;;3.32;94.07;96124.50;5091100;28;20458;-79
2023/02/15 05:05:52;;;;;;;37.27;25.10;;;;;;;3.37;93.38;96124.34;5092258;28;20233;-78
2023/02/15 05:08:19;;;;;;;44.13;25.37;;;;;;;3.40;92.47;96132.84;5092511;28;20467;-80
2023/02/15 05:10:48;;;;;;;37.00;21.53;;;;;;;3.36;92.70;96126.09;5092617;28;20447;-78
2023/02/15 05:13:15;;;;;;;42.47;23.63;;;;;;;3.29;92.72;96116.00;5096037;28;20451;-78
2023/02/15 05:15:42;;;;;;;42.70;22.03;;;;;;;3.39;93.38;96135.50;5096404;28;20443;-78
2023/02/15 05:18:09;;;;;;;36.67;20.53;;;;;;;3.31;93.64;96125.41;5060462;28;20439;-80
2023/02/15 05:20:36;;;;;;;51.03;27.90;;;;;;;3.32;93.68;96136.63;5096249;28;20444;-78
2023/02/15 05:23:02;;;;;;;39.90;22.90;;;;;;;3.32;93.19;96134.03;5096384;28;20500;-79
2023/02/15 05:28:20;;;;;;;44.70;24.70;;;;;;;3.36;94.05;96151.19;5096170;28;20500;-78
2023/02/15 05:30:47;;;;;;;45.50;23.80;;;;;;;3.31;92.73;96145.31;5096073;28;20447;-78
2023/02/15 05:33:14;;;;;;;53.00;23.50;;;;;;;3.30;93.01;96154.84;5093450;28;20459;-79
2023/02/15 05:35:41;;;;;;;50.37;26.20;;;;;;;3.25;93.42;96154.19;5075676;28;20448;-75
2023/02/15 05:38:08;;;;;;;44.93;25.10;;;;;;;3.30;94.03;96154.00;5075392;28;20444;-75
2023/02/15 05:40:35;;;;;;;38.10;23.40;;;;;;;3.29;93.86;96147.97;5075113;28;20961;-75
2023/02/15 05:43:02;;;;;;;38.90;24.20;;;;;;;3.29;94.28;96157.50;5074861;28;20986;-75
2023/02/15 05:45:30;;;;;;;40.07;23.10;;;;;;;3.39;95.28;96154.50;5075149;28;20841;-76
2023/02/15 05:47:57;;;;;;;43.23;24.60;;;;;;;3.41;95.11;96159.66;5074892;28;20483;-76
2023/02/15 05:50:24;;;;;;;47.57;25.07;;;;;;;3.48;92.80;96160.28;5075156;28;20470;-75
2023/02/15 05:52:51;;;;;;;57.63;31.37;;;;;;;3.48;93.59;96155.94;5075965;28;20452;-75
2023/02/15 05:55:18;;;;;;;56.10;30.70;;;;;;;3.49;94.65;96152.44;5075644;28;20448;-77
2023/02/15 05:57:45;;;;;;;42.07;25.53;;;;;;;3.53;94.54;96167.00;5076533;28;20444;-75
2023/02/15 06:00:13;;;;;;;43.60;25.60;;;;;;;3.56;95.70;96156.50;5074964;28;20448;-76
2023/02/15 06:02:42;;;;;;;49.00;29.20;;;;;;;3.54;95.13;96163.50;5075031;28;20451;-76
2023/02/15 06:05:09;;;;;;;44.40;25.10;;;;;;;3.55;93.67;96157.41;5074884;28;20494;-76
2023/02/15 06:07:36;;;;;;;43.80;25.67;;;;;;;3.65;96.74;96155.31;5087328;28;21034;-77
2023/02/15 06:10:03;;;;;;;40.20;22.43;;;;;;;3.62;93.36;96155.41;5077259;28;20964;-76
2023/02/15 06:12:30;;;;;;;45.10;25.90;;;;;;;3.64;92.16;96171.78;5094786;28;20444;-77
2023/02/15 06:15:07;;;;;;;41.97;23.47;;;;;;;3.69;96.63;96157.72;5085951;28;20454;-76
2023/02/15 06:17:34;;;;;;;34.03;24.27;;;;;;;3.62;92.57;96161.47;5094776;28;20504;-77
2023/02/15 06:20:02;;;;;;;37.30;23.30;;;;;;;3.65;93.69;96166.53;5093452;28;20436;-78
2023/02/15 06:22:29;;;;;;;39.70;23.93;;;;;;;3.66;92.01;96164.78;5093452;28;20443;-76
2023/02/15 06:24:56;;;;;;;42.67;22.90;;;;;;;3.83;96.93;96165.00;5093004;28;20567;-77
2023/02/15 06:27:22;;;;;;;45.57;24.00;;;;;;;3.84;94.84;96171.88;5093557;28;20537;-77
2023/02/15 06:29:49;;;;;;;43.13;25.60;;;;;;;3.81;92.63;96173.75;5078460;28;20445;-76
2023/02/15 06:32:16;;;;;;;40.70;24.13;;;;;;;3.80;91.92;96169.47;5054399;28;20943;-77
2023/02/15 06:34:43;;;;;;;39.70;23.80;;;;;;;3.76;90.46;96167.88;5082975;28;20459;-76
2023/02/15 06:37:11;;;;;;;42.07;24.37;;;;;;;3.84;92.53;96171.03;5093391;28;20451;-76
2023/02/15 06:39:37;;;;;;;36.30;22.33;;;;;;;3.87;90.56;96173.53;5093432;28;20436;-76
2023/02/15 06:42:10;;;;;;;52.90;25.20;;;;;;;3.90;93.97;96168.22;5093526;28;20436;-76
2023/02/15 06:44:36;;;;;;;30.10;20.00;;;;;;;3.85;93.27;96165.78;5070534;28;20444;-77
2023/02/15 06:47:03;;;;;;;45.60;24.77;;;;;;;3.85;91.45;96172.72;5090773;28;21007;-77
2023/02/15 06:49:30;;;;;;;33.30;22.10;;;;;;;3.85;92.21;96160.59;5072886;28;20497;-76
2023/02/15 06:51:57;;;;;;;40.07;24.57;;;;;;;3.81;91.99;96155.59;5093029;28;20841;-77
2023/02/15 06:54:25;;;;;;;42.33;22.73;;;;;;;3.93;92.32;96160.28;5093311;28;20444;-76
2023/02/15 06:56:52;;;;;;;37.13;20.67;;;;;;;3.87;91.11;96153.59;5093384;28;20497;-77
2023/02/15 06:59:18;;;;;;;38.80;20.97;;;;;;;3.97;92.35;96159.28;5093359;28;20508;-76
2023/02/15 07:01:45;;;;;;;30.47;17.77;;;;;;;3.88;89.25;96155.28;5093140;28;20538;-77
2023/02/15 07:04:12;;;;;;;34.90;21.73;;;;;;;3.94;90.28;96159.41;5093100;28;20998;-76
2023/02/15 07:06:40;;;;;;;35.90;19.60;;;;;;;3.93;90.96;96155.09;5092980;28;20479;-77
2023/02/15 07:09:07;;;;;;;29.87;19.33;;;;;;;3.96;91.89;96166.22;5092923;28;20960;-77
2023/02/15 07:14:31;;;;;;;36.20;20.70;;;;;;;4.09;89.94;96164.00;5013065;28;20419;-77
2023/02/15 07:16:58;;;;;;;33.93;21.10;;;;;;;4.06;88.81;96171.06;5050041;28;20994;-76
2023/02/15 07:19:25;;;;;;;30.63;19.13;;;;;;;4.03;88.13;96174.59;5000791;28;20437;-76
2023/02/15 07:21:52;;;;;;;37.40;22.37;;;;;;;4.08;88.15;96180.50;5050083;28;20456;-77
2023/02/15 07:24:18;;;;;;;33.20;19.70;;;;;;;4.07;87.76;96180.56;5049801;28;20441;-77
2023/02/15 07:26:46;;;;;;;32.73;22.87;;;;;;;4.06;88.51;96178.88;5049947;28;20547;-76
2023/02/15 07:29:13;;;;;;;40.00;22.00;;;;;;;4.09;88.34;96178.75;5049869;28;20441;-76
2023/02/15 07:31:40;;;;;;;37.20;22.57;;;;;;;4.09;87.73;96171.81;5050062;28;20442;-76
2023/02/15 07:34:07;;;;;;;33.53;19.10;;;;;;;4.02;87.08;96170.31;5049307;28;20480;-76
2023/02/15 07:36:34;;;;;;;33.10;20.10;;;;;;;3.98;88.11;96161.81;5049974;28;21027;-76
2023/02/15 07:39:01;;;;;;;29.50;18.20;;;;;;;4.04;91.32;96158.97;5049618;28;20441;-76
2023/02/15 07:41:27;;;;;;;28.43;19.27;;;;;;;4.03;87.96;96167.66;5049880;28;20448;-76
2023/02/15 07:43:55;;;;;;;30.67;17.53;;;;;;;4.18;89.10;96155.00;5049670;28;20956;-77
2023/02/15 07:46:22;;;;;;;26.90;18.47;;;;;;;4.21;87.75;96166.13;5049780;28;20437;-76
2023/02/15 07:48:49;;;;;;;25.50;16.03;;;;;;;4.19;86.43;96160.13;5073054;28;20455;-76
2023/02/15 07:51:16;;;;;;;28.93;18.87;;;;;;;4.34;88.14;96159.53;5092346;28;20443;-76
2023/02/15 07:53:44;;;;;;;26.13;18.10;;;;;;;4.45;86.75;96163.44;5092174;28;20802;-77
2023/02/15 07:56:12;;;;;;;24.37;16.47;;;;;;;4.55;84.97;96167.34;5092386;28;20999;-76
2023/02/15 07:58:51;;;;;;;22.70;14.20;;;;;;;4.69;84.92;96159.84;5092257;28;20459;-76
2023/02/15 08:01:22;;;;;;;29.30;16.77;;;;;;;4.70;83.04;96168.50;5092103;28;20444;-76
2023/02/15 08:03:49;;;;;;;33.40;19.33;;;;;;;4.78;83.37;96163.81;5092223;28;20879;-76
2023/02/15 08:06:16;;;;;;;26.60;16.57;;;;;;;4.88;82.73;96165.13;5092004;28;20451;-77
2023/02/15 08:08:43;;;;;;;26.20;16.17;;;;;;;4.80;82.74;96165.44;5091886;28;20985;-76
2023/02/15 08:11:37;;;;;;;27.60;14.70;;;;;;;4.81;82.19;96174.09;5056602;28;20857;-76
2023/02/15 08:14:06;;;;;;;31.60;18.70;;;;;;;4.94;81.52;96173.53;5092112;28;20443;-76
2023/02/15 08:16:36;;;;;;;31.70;19.20;;;;;;;5.06;82.15;96172.16;5092001;28;20439;-77
2023/02/15 08:19:05;;;;;;;38.70;23.90;;;;;;;5.20;82.92;96177.63;5092066;28;20861;-77
2023/02/15 08:21:34;;;;;;;49.70;28.00;;;;;;;5.12;81.17;96179.69;5091804;28;20534;-76
2023/02/15 08:24:01;;;;;;;32.10;20.53;;;;;;;5.15;81.81;96176.09;5091804;28;20443;-76
2023/02/15 08:26:29;;;;;;;37.07;20.20;;;;;;;5.18;81.10;96181.19;5072579;28;20977;-76
2023/02/15 08:28:56;;;;;;;33.73;19.50;;;;;;;5.28;80.75;96172.94;5091837;28;20451;-76
2023/02/15 08:31:23;;;;;;;32.97;21.07;;;;;;;5.36;83.76;96172.59;5091790;28;20960;-76
2023/02/15 08:33:53;;;;;;;27.47;17.30;;;;;;;5.40;81.36;96181.09;5091966;28;20447;-76
2023/02/15 08:36:22;;;;;;;28.50;17.13;;;;;;;5.44;77.96;96172.22;5091685;28;20447;-77
2023/02/15 08:38:49;;;;;;;31.90;19.67;;;;;;;5.45;79.76;96173.94;5092057;28;20443;-76
2023/02/15 08:41:18;;;;;;;36.67;21.73;;;;;;;5.51;79.04;96177.13;5091529;28;20472;-76
2023/02/15 08:43:53;;;;;;;31.87;19.53;;;;;;;5.64;79.49;96179.16;5091823;28;20451;-76
2023/02/15 08:46:20;;;;;;;37.17;20.03;;;;;;;5.81;77.21;96168.84;5057799;28;20439;-76
2023/02/15 08:48:48;;;;;;;28.90;18.00;;;;;;;5.89;76.89;96178.03;5095578;28;20490;-76
2023/02/15 08:51:17;;;;;;;30.87;18.57;;;;;;;5.87;76.13;96181.59;5095353;28;20451;-76
2023/02/15 08:53:46;;;;;;;32.80;18.10;;;;;;;5.87;80.54;96176.38;5095602;28;20500;-76
2023/02/15 08:56:13;;;;;;;34.30;20.20;;;;;;;5.71;78.64;96165.81;5095303;28;20435;-76
2023/02/15 08:58:40;;;;;;;31.80;18.60;;;;;;;5.84;77.48;96179.13;5095596;28;20439;-77
2023/02/15 09:01:11;;;;;;;30.30;17.97;;;;;;;5.88;79.00;96180.69;5095529;28;20946;-76
2023/02/15 09:03:39;;;;;;;30.50;18.50;;;;;;;5.85;77.44;96173.00;5095544;28;20447;-76
2023/02/15 09:06:08;;;;;;;31.50;18.97;;;;;;;5.98;77.38;96173.31;5095326;28;20995;-76
2023/02/15 09:08:36;;;;;;;24.40;15.57;;;;;;;5.92;76.37;96179.66;5095219;28;21056;-76
2023/02/15 09:11:09;;;;;;;32.80;19.00;;;;;;;6.00;76.63;96176.69;5059630;28;20501;-76
2023/02/15 09:13:36;;;;;;;26.17;18.93;;;;;;;6.11;75.63;96164.88;5095450;28;20443;-76
2023/02/15 09:16:04;;;;;;;39.00;20.43;;;;;;;6.37;82.29;96168.00;5095277;28;20439;-77
2023/02/15 09:18:33;;;;;;;32.17;17.30;;;;;;;6.43;72.90;96172.91;5095092;28;20438;-76
2023/02/15 09:21:05;;;;;;;29.43;16.93;;;;;;;6.54;73.06;96162.81;5095157;28;20476;-76
2023/02/15 09:23:32;;;;;;;25.90;17.63;;;;;;;6.52;72.55;96162.03;5095174;28;20446;-76
2023/02/15 09:26:05;;;;;;;29.63;19.93;;;;;;;6.62;73.12;96171.09;5094943;28;20540;-77
2023/02/15 09:28:32;;;;;;;29.30;18.20;;;;;;;6.72;72.47;96172.34;5095203;28;20479;-76
2023/02/15 09:31:09;;;;;;;32.63;17.10;;;;;;;6.81;72.10;96173.66;5094903;28;20479;-76
2023/02/15 09:33:37;;;;;;;33.73;18.90;;;;;;;6.79;71.65;96163.28;5094919;28;20934;-77
2023/02/15 09:36:05;;;;;;;30.70;19.13;;;;;;;6.89;71.22;96175.88;5095134;28;20447;-77
2023/02/15 09:38:31;;;;;;;29.27;16.93;;;;;;;7.02;70.57;96169.97;5094936;28;20458;-76
2023/02/15 09:41:12;;;;;;;27.17;18.27;;;;;;;7.03;69.95;96170.81;5094769;28;20492;-77
2023/02/15 09:43:51;;;;;;;30.47;17.20;;;;;;;7.07;69.80;96169.75;5094498;28;20447;-76
2023/02/15 09:46:41;;;;;;;28.60;17.20;;;;;;;7.01;70.39;96167.44;5094441;28;20452;-76
2023/02/15 09:49:18;;;;;;;28.57;16.60;;;;;;;7.07;71.95;96167.97;5094468;28;20483;-77
2023/02/15 09:52:10;;;;;;;32.40;17.73;;;;;;;6.91;70.98;96166.19;5094738;28;20424;-76
2023/02/15 09:54:57;;;;;;;24.20;15.27;;;;;;;6.61;71.44;96169.41;5094349;28;20496;-76
2023/02/15 09:57:33;;;;;;;26.13;15.93;;;;;;;6.49;72.18;96159.56;5094046;28;20531;-76
2023/02/15 10:00:09;;;;;;;25.87;17.10;;;;;;;6.46;71.31;96159.72;5094876;28;20443;-76
2023/02/15 10:02:50;;;;;;;26.80;17.10;;;;;;;6.22;71.80;96162.59;5094500;28;20454;-76
2023/02/15 10:05:28;;;;;;;28.90;17.30;;;;;;;6.07;73.26;96154.63;5094121;28;20451;-76
2023/02/15 10:08:23;;;;;;;34.37;20.27;;;;;;;6.30;74.53;96158.75;5094056;28;20532;-76
2023/02/15 10:11:38;;;;;;;38.30;19.00;;;;;;;6.45;73.28;96156.28;5094177;28;20499;-76
2023/02/15 10:14:02;;;;;;;24.40;16.60;;;;;;;6.55;73.52;96156.66;5094179;28;20922;-77
2023/02/15 10:16:37;;;;;;;26.60;16.90;;;;;;;6.73;74.12;96153.16;5094106;28;20454;-76
2023/02/15 10:19:15;;;;;;;33.27;18.57;;;;;;;6.70;71.94;96150.72;5094359;28;20439;-77
2023/02/15 10:21:57;;;;;;;32.80;16.83;;;;;;;6.51;72.68;96155.13;5093744;28;20451;-76
2023/02/15 10:24:40;;;;;;;35.73;20.90;;;;;;;6.52;72.82;96155.06;5093778;28;20540;-76
2023/02/15 10:27:13;;;;;;;25.07;15.80;;;;;;;6.60;71.28;96148.63;5058133;28;20892;-77
2023/02/15 10:29:50;;;;;;;24.80;15.80;;;;;;;6.72;71.69;96148.88;5093750;28;20874;-76
2023/02/15 10:32:24;;;;;;;38.80;20.27;;;;;;;6.83;70.74;96150.94;5094171;28;20447;-76
2023/02/15 10:34:53;;;;;;;41.70;22.60;;;;;;;6.88;72.15;96140.25;5093699;28;20492;-77
2023/02/15 10:37:59;;;;;;;36.53;21.30;;;;;;;6.87;71.58;96142.03;5093771;28;20447;-76
2023/02/15 10:40:34;;;;;;;34.50;21.50;;;;;;;6.94;70.69;96142.56;5031018;28;20714;-76
2023/02/15 10:43:15;;;;;;;28.00;18.90;;;;;;;6.96;72.20;96136.38;5030982;28;20442;-76
2023/02/15 10:45:54;;;;;;;27.33;18.10;;;;;;;6.82;69.61;96126.63;5030890;28;20920;-76
2023/02/15 10:48:51;;;;;;;32.37;17.80;;;;;;;6.76;72.36;96139.13;5030705;28;20939;-76
2023/02/15 10:51:26;;;;;;;25.97;19.17;;;;;;;6.82;73.36;96129.22;5030935;28;20489;-76
2023/02/15 10:54:15;;;;;;;32.10;18.23;;;;;;;6.77;72.08;96127.78;5030821;28;20454;-76
2023/02/15 10:56:49;;;;;;;35.63;21.17;;;;;;;6.88;71.44;96117.63;5030785;28;20859;-76
2023/02/15 10:59:34;;;;;;;36.03;18.50;;;;;;;7.02;70.02;96122.16;5030634;28;20445;-76
2023/02/15 11:02:14;;;;;;;30.43;19.33;;;;;;;7.07;69.92;96117.53;5030745;28;20536;-77
2023/02/15 11:04:48;;;;;;;27.03;17.40;;;;;;;7.03;69.26;96118.63;5030696;28;20857;-76
2023/02/15 11:07:19;;;;;;;22.20;16.70;;;;;;;6.91;69.81;96117.47;4999092;28;20496;-76
2023/02/15 11:09:50;;;;;;;28.97;19.57;;;;;;;6.83;70.97;96122.25;5029828;28;20537;-76
2023/02/15 11:12:23;;;;;;;27.00;17.23;;;;;;;6.78;70.05;96117.25;5030640;28;20458;-76
2023/02/15 11:14:56;;;;;;;34.30;21.50;;;;;;;6.82;70.96;96108.34;5031058;28;20459;-76
2023/02/15 11:17:30;;;;;;;31.43;18.70;;;;;;;6.90;72.04;96110.56;5057334;28;20443;-76
2023/02/15 11:20:05;;;;;;;27.27;18.40;;;;;;;6.78;70.62;96114.66;5092756;28;20444;-76
2023/02/15 11:22:34;;;;;;;29.13;19.00;;;;;;;6.77;70.98;96118.19;5093109;28;20497;-76
2023/02/15 11:25:02;;;;;;;34.00;20.00;;;;;;;6.84;70.80;96121.31;5092499;28;20494;-76
2023/02/15 11:27:33;;;;;;;29.70;17.90;;;;;;;6.74;69.98;96110.50;5092694;28;20439;-76
2023/02/15 11:30:03;;;;;;;26.57;18.87;;;;;;;6.77;70.71;96102.53;5092689;28;20853;-77
2023/02/15 11:32:34;;;;;;;27.07;19.10;;;;;;;6.77;72.20;96107.75;5092326;28;20435;-77
2023/02/15 11:35:05;;;;;;;33.47;20.07;;;;;;;6.88;71.49;96117.63;5093339;28;20832;-75
2023/02/15 11:37:37;;;;;;;36.53;21.80;;;;;;;6.87;70.11;96108.13;5093429;28;20924;-76
2023/02/15 11:40:18;;;;;;;29.67;18.43;;;;;;;6.84;69.84;96106.50;5093367;28;20523;-76
2023/02/15 11:42:47;;;;;;;27.53;17.60;;;;;;;6.79;69.71;96103.28;5057490;28;20447;-76
2023/02/15 11:45:23;;;;;;;33.13;19.07;;;;;;;6.81;69.92;96108.44;5093320;28;20459;-75
2023/02/15 11:47:51;;;;;;;39.00;21.70;;;;;;;6.83;70.86;96097.00;5058201;28;22416;-76
2023/02/15 11:50:23;;;;;;;34.63;21.10;;;;;;;6.92;73.54;96094.84;5093152;28;20443;-76
2023/02/15 11:52:51;;;;;;;34.53;21.20;;;;;;;6.99;71.27;96088.41;5093088;28;20495;-76
2023/02/15 11:55:23;;;;;;;37.53;21.57;;;;;;;7.13;70.53;96081.53;5092898;28;20447;-76
2023/02/15 11:57:56;;;;;;;33.83;20.07;;;;;;;7.27;69.75;96086.03;5093126;28;20934;-76
2023/02/15 12:00:35;;;;;;;32.43;20.47;;;;;;;7.41;68.83;96074.84;5057667;28;20443;-76
2023/02/15 12:03:12;;;;;;;40.70;21.40;;;;;;;7.52;68.44;96074.25;5092724;28;20447;-75
2023/02/15 12:05:43;;;;;;;44.30;21.83;;;;;;;7.53;67.82;96066.38;5059417;28;20497;-76
2023/02/15 12:08:21;;;;;;;32.77;20.90;;;;;;;7.53;67.09;96061.16;5057563;28;20985;-75
2023/02/15 12:10:59;;;;;;;30.87;21.47;;;;;;;7.46;67.11;96067.59;5092947;28;20471;-76
2023/02/15 12:13:26;;;;;;;36.67;23.17;;;;;;;7.38;69.25;96070.63;5093209;28;20451;-76